Impacts METAR Board
IDs:

KMEM - Memphis Intl, TN, US

Updated at: 1800 UTC 22 Sep 2018
Potential Impact None Slight Moderate High
Time 22/06Z 22/07Z 22/08Z 22/09Z 22/10Z 22/11Z 22/12Z 22/13Z 22/14Z 22/15Z 22/16Z 22/17Z 22/18Z
Temp74 74 74 73 73 73 73 70 69 68 70 70 69
Dewpt72 72 73 73 73 73 72 69 68 68 69 69 68
Altim30.05 30.04 30.04 30.04 30.04 30.05 30.05 30.06 30.06 30.06 30.07 30.07 30.05
VIS9 10 9 7 8 9 10 10 7 10 10 10 5
CIG90 65 8 39 7 5 6 5 5 4 4 4 4
CoverOVCOVCOVCOVCOVCOVCOVCOVCOVCOVCOVCOVCOVC
FltCatVFRVFRIFRVFRIFRIFRIFRIFRIFRLIFRLIFRLIFRLIFR
WX-RA---RA-----------RA------BR
WDir6060802802050404050404036030
WSpd9 8 7 9 4 9 11 11 11 10 7 6 9
WGst-- -- -- -- -- -- -- -- -- -- -- -- --
Raw hourly METARs
KMEM 220554Z 06009KT 9SM -RA FEW060 BKN090 BKN110 OVC150 23/22 A3005 RMK AO2 RAB45 SLP172 P0000 60003 T02330222 10250 20233 403390233 56012
KMEM 220654Z 06008KT 10SM SCT050 BKN065 OVC250 23/22 A3004 RMK AO2 RAE33 SLP168 P0001 T02330222
KMEM 220754Z 08007KT 9SM -RA BKN008 OVC046 23/23 A3004 RMK AO2 LTG DSNT ALQDS RAB27 SLP167 P0001 T02330228
KMEM 220901Z 28009KT 7SM FEW006 BKN039 OVC047 23/23 A3004 RMK AO2 LTG DSNT NE T02280228
KMEM 220954Z 02004KT 8SM BKN007 OVC017 23/23 A3004 RMK AO2 LTG DSNT N RAB03E19 SLP167 P0006 T02280228
KMEM 221054Z 05009KT 9SM OVC005 23/23 A3005 RMK AO2 CIG 004V009 SLP170 T02280228
KMEM 221154Z 04011KT 10SM OVC006 23/22 A3005 RMK AO2 SLP170 60019 70023 T02280222 10233 20228 50005
KMEM 221254Z 04011KT 10SM OVC005 21/21 A3006 RMK AO2 SLP176 T02110206
KMEM 221354Z 05011KT 7SM -RA OVC005 21/20 A3006 RMK AO2 RAB02 SLP177 P0001 T02060200
KMEM 221454Z 04010KT 10SM OVC004 20/20 A3006 RMK AO2 RAE39 SLP176 P0001 60002 T02000200 50005
KMEM 221554Z 04007KT 10SM OVC004 21/21 A3007 RMK AO2 SLP179 T02110206
KMEM 221654Z 36006KT 10SM OVC004 21/21 A3007 RMK AO2 SLP178 T02110206
KMEM 221754Z 03009KT 5SM BR OVC004 21/20 A3005 RMK AO2 SLP173 60002 T02060200 10228 20200 56006



Page loaded:  18:36 UTC  |   11:36 AM Pacific  |   12:36 PM Mountain  |   01:36 PM Central  |   02:36 PM Eastern

 

ADVISORIES

FORECASTS

FORECASTS

OBSERVATIONS

USER TOOLS

ABOUT US